Time;durP1;ratioP1;P1;durP2;ratioP2;P2;SDS_P1;SDS_P2;PMS_P1;PMS_P2;Temp;Humidity;BMP_temperature;BMP_pressure;BME280_temperature;BME280_humidity;BME280_pressure;Samples;Min_cycle;Max_cycle;Signal;HPM_P1;HPM_P2
2022/11/15 00:01:14;;;;;;;34.10;17.53;;;6.60;99.90;;;;;;4771221;30;20203;-84
2022/11/15 00:03:41;;;;;;;34.03;16.33;;;6.60;99.90;;;;;;4770060;30;20533;-82
2022/11/15 00:06:09;;;;;;;33.17;17.07;;;6.50;99.90;;;;;;4770275;30;20222;-83
2022/11/15 00:08:36;;;;;;;34.20;17.20;;;6.60;99.90;;;;;;4771055;30;20208;-82
2022/11/15 00:11:03;;;;;;;32.53;17.40;;;6.50;99.90;;;;;;4770196;30;20205;-82
2022/11/15 00:13:30;;;;;;;30.67;16.63;;;6.50;99.90;;;;;;4769632;30;20207;-82
2022/11/15 00:15:59;;;;;;;36.00;18.03;;;6.60;99.90;;;;;;4769580;30;20243;-83
2022/11/15 00:18:26;;;;;;;36.10;17.83;;;6.60;99.90;;;;;;4770708;30;20200;-82
2022/11/15 00:20:53;;;;;;;44.93;20.17;;;6.50;99.90;;;;;;4770961;30;20218;-83
2022/11/15 00:23:20;;;;;;;34.27;18.30;;;6.60;99.90;;;;;;4769428;30;20208;-83
2022/11/15 00:25:47;;;;;;;35.93;18.03;;;6.60;99.90;;;;;;4769472;30;20220;-83
2022/11/15 00:28:14;;;;;;;37.57;18.70;;;6.60;99.90;;;;;;4769276;30;20647;-83
2022/11/15 00:30:40;;;;;;;35.90;18.03;;;6.50;99.90;;;;;;4769504;30;20212;-82
2022/11/15 00:33:09;;;;;;;34.97;18.67;;;6.60;99.90;;;;;;4769559;30;20226;-84
2022/11/15 00:35:36;;;;;;;40.17;19.20;;;6.50;99.90;;;;;;4769800;29;20239;-83
2022/11/15 00:38:03;;;;;;;37.43;18.90;;;6.60;99.90;;;;;;4769255;30;20213;-83
2022/11/15 00:40:30;;;;;;;39.93;19.47;;;6.50;99.90;;;;;;4770784;30;20564;-84
2022/11/15 00:42:58;;;;;;;41.17;20.17;;;6.60;99.90;;;;;;4769505;30;20208;-83
2022/11/15 00:45:27;;;;;;;39.40;20.00;;;6.50;99.90;;;;;;4769130;30;20211;-83
2022/11/15 00:47:54;;;;;;;40.37;19.37;;;6.40;99.90;;;;;;4770593;30;20201;-83
2022/11/15 00:50:22;;;;;;;45.63;21.83;;;6.50;99.90;;;;;;4769316;30;20211;-83
2022/11/15 00:56:12;;;;;;;44.77;21.27;;;6.30;99.90;;;;;;4772352;30;20232;-84
2022/11/15 00:58:39;;;;;;;39.50;19.57;;;6.30;99.90;;;;;;4772171;30;20220;-85
2022/11/15 01:01:13;;;;;;;44.87;20.60;;;6.30;99.90;;;;;;4788302;30;20203;-85
2022/11/15 01:03:41;;;;;;;42.10;20.87;;;6.40;99.90;;;;;;4772437;30;20652;-85
2022/11/15 01:06:09;;;;;;;45.60;21.40;;;6.50;99.90;;;;;;4757045;30;20218;-84
2022/11/15 01:08:36;;;;;;;44.83;21.17;;;6.40;99.90;;;;;;4788257;29;20211;-84
2022/11/15 01:11:09;;;;;;;43.60;21.27;;;6.40;99.90;;;;;;4788137;30;20206;-82
2022/11/15 01:13:37;;;;;;;45.37;20.63;;;6.40;99.90;;;;;;4771980;30;20222;-80
2022/11/15 01:16:10;;;;;;;51.03;21.50;;;6.40;99.90;;;;;;4771684;30;20232;-83
2022/11/15 01:18:38;;;;;;;44.97;21.37;;;6.40;99.90;;;;;;4772306;30;20550;-83
2022/11/15 01:21:07;;;;;;;49.33;22.30;;;6.40;99.90;;;;;;4788512;29;20231;-82
2022/11/15 01:23:35;;;;;;;47.37;21.00;;;6.40;99.90;;;;;;4788333;30;20209;-84
2022/11/15 01:26:03;;;;;;;44.90;21.43;;;6.30;99.90;;;;;;4788355;29;20214;-84
2022/11/15 01:28:32;;;;;;;50.20;20.73;;;6.30;99.90;;;;;;4788460;29;20195;-84
2022/11/15 01:31:00;;;;;;;47.10;20.07;;;6.20;99.90;;;;;;4772327;30;20205;-84
2022/11/15 01:33:29;;;;;;;43.97;20.43;;;6.20;99.90;;;;;;4787792;30;20728;-83
2022/11/15 01:35:56;;;;;;;44.60;21.00;;;6.20;99.90;;;;;;4772039;29;20239;-83
2022/11/15 01:38:23;;;;;;;46.93;21.07;;;6.20;99.90;;;;;;4772295;30;20203;-86
2022/11/15 01:40:51;;;;;;;48.67;20.80;;;6.20;99.90;;;;;;4771690;29;20661;-85
2022/11/15 01:43:26;;;;;;;45.53;21.40;;;6.20;99.90;;;;;;4787959;29;20213;-86
2022/11/15 01:46:05;;;;;;;42.73;20.27;;;6.20;99.90;;;;;;4771814;30;20210;-85
2022/11/15 01:48:34;;;;;;;44.77;20.60;;;6.20;99.90;;;;;;4775116;30;20218;-86
2022/11/15 01:51:09;;;;;;;49.20;21.43;;;6.20;99.90;;;;;;4775112;30;20222;-85
2022/11/15 01:53:38;;;;;;;43.07;19.83;;;6.10;99.90;;;;;;4791245;29;20241;-85
2022/11/15 01:56:08;;;;;;;45.63;20.43;;;6.10;99.90;;;;;;4791212;29;20238;-85
2022/11/15 01:58:35;;;;;;;43.40;20.10;;;6.20;99.90;;;;;;4775182;30;20214;-83
2022/11/15 02:01:02;;;;;;;43.27;19.53;;;6.20;99.90;;;;;;4775320;30;20210;-85
2022/11/15 02:03:51;;;;;;;43.77;19.63;;;6.10;99.90;;;;;;4791369;29;20197;-83
2022/11/15 02:06:20;;;;;;;39.77;19.30;;;6.10;99.90;;;;;;4775003;30;20207;-82
2022/11/15 02:08:47;;;;;;;45.27;20.80;;;6.10;99.90;;;;;;4760301;29;20215;-84
2022/11/15 02:11:14;;;;;;;39.73;18.77;;;6.20;99.90;;;;;;4774689;30;20658;-84
2022/11/15 02:13:42;;;;;;;45.17;19.70;;;6.20;99.90;;;;;;4774653;30;20219;-85
2022/11/15 02:16:26;;;;;;;42.57;19.67;;;6.30;99.90;;;;;;4790842;29;20655;-82
2022/11/15 02:19:06;;;;;;;39.13;19.23;;;6.40;99.90;;;;;;4791042;29;20326;-86
2022/11/15 02:21:59;;;;;;;45.37;19.43;;;6.40;99.90;;;;;;4790543;29;20290;-83
2022/11/15 02:24:49;;;;;;;46.23;19.93;;;6.40;99.90;;;;;;4774516;30;20243;-85
2022/11/15 02:27:22;;;;;;;44.03;19.13;;;6.40;99.90;;;;;;4790881;30;20203;-84
2022/11/15 02:30:17;;;;;;;45.73;19.93;;;6.40;99.90;;;;;;4790501;29;20202;-85
2022/11/15 02:32:47;;;;;;;42.17;19.13;;;6.40;99.90;;;;;;4774884;30;20214;-85
2022/11/15 02:35:35;;;;;;;43.53;20.10;;;6.40;99.90;;;;;;4774069;30;20217;-84
2022/11/15 02:38:13;;;;;;;42.70;20.40;;;6.30;99.90;;;;;;4774531;30;20219;-86
2022/11/15 02:40:56;;;;;;;45.13;20.17;;;6.30;99.90;;;;;;4774455;30;20200;-85
2022/11/15 02:43:58;;;;;;;45.93;20.47;;;6.40;99.90;;;;;;4790671;30;20202;-85
2022/11/15 02:49:35;;;;;;;49.70;21.30;;;6.40;99.90;;;;;;4774151;29;20192;-85
2022/11/15 02:52:02;;;;;;;43.00;20.80;;;6.20;99.90;;;;;;4790406;29;20288;-85
2022/11/15 02:54:33;;;;;;;49.97;22.20;;;6.20;99.90;;;;;;4774188;30;20604;-86
2022/11/15 02:57:12;;;;;;;51.67;22.87;;;6.20;99.90;;;;;;4789814;29;20307;-84
2022/11/15 02:59:54;;;;;;;50.77;22.67;;;6.30;99.90;;;;;;4773517;30;20204;-85
2022/11/15 03:02:21;;;;;;;52.03;22.83;;;6.30;99.90;;;;;;4774079;29;20218;-84
2022/11/15 03:04:56;;;;;;;50.97;23.67;;;6.20;99.90;;;;;;4774081;30;20204;-85
2022/11/15 03:07:51;;;;;;;51.13;22.57;;;6.20;99.90;;;;;;4774042;30;20214;-83
2022/11/15 03:10:25;;;;;;;52.93;23.43;;;6.20;99.90;;;;;;4774217;30;20215;-82
2022/11/15 03:13:19;;;;;;;60.93;24.37;;;6.30;99.90;;;;;;4773734;30;20209;-84
2022/11/15 03:16:13;;;;;;;53.47;23.73;;;6.30;99.90;;;;;;4773803;30;20241;-85
2022/11/15 03:18:49;;;;;;;55.30;24.33;;;6.40;99.90;;;;;;4737474;30;20217;-85
2022/11/15 03:21:19;;;;;;;54.50;23.10;;;6.40;99.90;;;;;;4752030;30;20578;-85
2022/11/15 03:23:48;;;;;;;56.30;24.23;;;6.40;99.90;;;;;;4751784;30;20777;-85
2022/11/15 03:26:18;;;;;;;55.80;24.20;;;6.40;99.90;;;;;;4737042;30;20260;-84
2022/11/15 03:28:56;;;;;;;52.43;23.57;;;6.40;99.90;;;;;;4736845;30;20213;-85
2022/11/15 03:34:36;;;;;;;52.50;23.17;;;6.50;99.90;;;;;;4751610;30;20244;-84
2022/11/15 03:37:04;;;;;;;52.37;23.23;;;6.50;99.90;;;;;;4751755;30;20639;-86
2022/11/15 03:39:31;;;;;;;54.10;23.07;;;6.40;99.90;;;;;;4737002;30;20625;-84
2022/11/15 03:42:17;;;;;;;55.17;24.23;;;6.30;99.90;;;;;;4751573;30;20211;-84
2022/11/15 03:45:09;;;;;;;55.67;24.23;;;6.20;99.90;;;;;;4751484;30;20228;-83
2022/11/15 03:47:44;;;;;;;59.23;23.97;;;6.30;99.90;;;;;;4751579;30;20205;-84
2022/11/15 03:50:15;;;;;;;55.97;23.77;;;6.20;99.90;;;;;;4751272;30;20698;-83
2022/11/15 03:52:44;;;;;;;54.17;23.83;;;6.20;99.90;;;;;;4751373;30;20212;-84
2022/11/15 03:55:17;;;;;;;56.90;24.33;;;6.30;99.90;;;;;;4760586;30;20222;-85
2022/11/15 03:57:45;;;;;;;55.53;24.13;;;6.30;99.90;;;;;;4789154;29;20223;-85
2022/11/15 04:00:13;;;;;;;57.20;24.03;;;6.20;99.90;;;;;;4789009;29;20628;-84
2022/11/15 04:02:39;;;;;;;53.80;23.13;;;6.20;99.90;;;;;;4772836;30;20220;-83
2022/11/15 04:05:07;;;;;;;58.10;24.13;;;6.20;99.90;;;;;;4789005;29;20206;-84
2022/11/15 04:07:34;;;;;;;58.63;23.20;;;6.30;99.90;;;;;;4772880;30;20212;-84
2022/11/15 04:10:05;;;;;;;55.77;22.73;;;6.20;99.90;;;;;;4788596;29;20617;-84
2022/11/15 04:12:37;;;;;;;53.57;23.60;;;6.20;99.90;;;;;;4789054;29;20282;-85
2022/11/15 04:15:08;;;;;;;54.73;22.70;;;6.30;99.90;;;;;;4772649;30;20243;-84
2022/11/15 04:17:46;;;;;;;56.93;23.33;;;6.30;99.90;;;;;;4788723;30;20305;-84
2022/11/15 04:25:54;;;;;;;56.17;23.53;;;6.30;99.90;;;;;;4772372;30;20546;-85
2022/11/15 04:28:22;;;;;;;53.73;22.50;;;6.30;99.90;;;;;;4772382;30;20297;-85
2022/11/15 04:30:49;;;;;;;53.50;22.27;;;6.20;99.90;;;;;;4788515;29;20207;-84
2022/11/15 04:33:16;;;;;;;53.43;23.00;;;6.30;99.90;;;;;;4788435;29;20202;-85
2022/11/15 04:35:43;;;;;;;53.00;21.97;;;6.20;99.90;;;;;;4772143;30;20215;-85
2022/11/15 04:38:10;;;;;;;48.07;20.47;;;6.20;99.90;;;;;;4772134;30;20228;-84
2022/11/15 04:40:38;;;;;;;47.73;20.27;;;6.10;99.90;;;;;;4772487;30;20211;-84
2022/11/15 04:43:05;;;;;;;51.77;21.40;;;6.00;99.90;;;;;;4788356;29;20209;-84
2022/11/15 04:45:31;;;;;;;50.70;20.50;;;5.90;99.90;;;;;;4772016;30;20611;-83
2022/11/15 04:47:58;;;;;;;50.63;20.63;;;5.80;99.90;;;;;;4772144;30;20219;-82
2022/11/15 04:50:25;;;;;;;54.33;21.97;;;5.80;99.90;;;;;;4772343;30;20271;-84
2022/11/15 04:52:53;;;;;;;52.90;21.23;;;5.70;99.90;;;;;;4771866;30;20215;-83
2022/11/15 04:55:21;;;;;;;62.13;23.20;;;5.60;99.90;;;;;;4771778;30;20225;-84
2022/11/15 04:57:47;;;;;;;55.90;22.20;;;5.50;99.90;;;;;;4771868;30;20238;-84
2022/11/15 05:00:16;;;;;;;59.63;22.20;;;5.60;99.90;;;;;;4772083;30;20216;-83
2022/11/15 05:05:29;;;;;;;55.07;22.20;;;5.60;99.90;;;;;;4771724;30;20199;-85
2022/11/15 05:07:55;;;;;;;58.67;22.60;;;5.70;99.90;;;;;;4787864;30;20203;-84
2022/11/15 05:10:22;;;;;;;53.03;21.87;;;5.70;99.90;;;;;;4772018;30;20244;-85
2022/11/15 05:12:49;;;;;;;62.73;23.73;;;5.70;99.90;;;;;;4772033;30;20562;-86
2022/11/15 05:15:16;;;;;;;62.07;22.50;;;5.70;99.90;;;;;;4787849;29;20200;-85
2022/11/15 05:17:43;;;;;;;58.83;22.90;;;5.90;99.90;;;;;;4771969;29;20234;-84
2022/11/15 05:20:10;;;;;;;56.33;22.17;;;5.90;99.90;;;;;;4771388;29;20209;-84
2022/11/15 05:22:38;;;;;;;54.63;21.73;;;6.00;99.90;;;;;;4771584;30;20761;-85
2022/11/15 05:25:05;;;;;;;93.90;25.23;;;5.90;99.90;;;;;;4771706;29;20688;-85
2022/11/15 05:27:33;;;;;;;58.67;22.13;;;5.80;99.90;;;;;;4772155;30;20205;-85
2022/11/15 05:30:00;;;;;;;58.40;22.43;;;5.80;99.90;;;;;;4771824;30;20206;-85
2022/11/15 05:32:28;;;;;;;54.90;21.87;;;6.00;99.90;;;;;;4788800;29;20205;-85
2022/11/15 05:34:55;;;;;;;58.70;21.43;;;5.90;99.90;;;;;;4772072;30;20213;-86
2022/11/15 05:37:22;;;;;;;58.13;22.97;;;5.90;99.90;;;;;;4756833;30;20273;-85
2022/11/15 05:39:49;;;;;;;56.60;22.23;;;6.00;99.90;;;;;;4771620;29;20314;-85
2022/11/15 05:42:16;;;;;;;61.77;21.77;;;5.90;99.90;;;;;;4771543;30;20204;-84
2022/11/15 05:44:47;;;;;;;53.80;20.80;;;5.90;99.90;;;;;;4771544;30;20219;-83
2022/11/15 05:47:25;;;;;;;55.23;22.00;;;5.80;99.90;;;;;;4771495;30;20287;-84
2022/11/15 05:49:53;;;;;;;58.57;21.60;;;5.70;99.90;;;;;;4787820;30;20569;-83
2022/11/15 05:52:25;;;;;;;53.53;20.77;;;5.70;99.90;;;;;;4771993;30;20574;-84
2022/11/15 05:54:53;;;;;;;58.57;21.00;;;5.60;99.90;;;;;;4769388;30;20297;-82
2022/11/15 05:57:20;;;;;;;59.63;22.27;;;5.60;99.90;;;;;;4768448;30;20254;-83
2022/11/15 05:59:47;;;;;;;61.40;22.43;;;5.70;99.90;;;;;;4768544;30;20208;-83
2022/11/15 06:02:14;;;;;;;54.77;21.07;;;5.80;99.90;;;;;;4768395;30;20220;-83
2022/11/15 06:04:41;;;;;;;58.33;20.90;;;5.80;99.90;;;;;;4753748;30;20300;-83
2022/11/15 06:07:08;;;;;;;59.87;21.27;;;5.70;99.90;;;;;;4768294;30;20567;-84
2022/11/15 06:09:35;;;;;;;63.70;21.70;;;5.70;99.90;;;;;;4783220;29;20234;-83
2022/11/15 06:12:02;;;;;;;61.50;22.60;;;5.60;99.90;;;;;;4769464;30;20655;-82
2022/11/15 06:14:29;;;;;;;61.93;22.57;;;5.60;99.90;;;;;;4768899;30;20227;-83
2022/11/15 06:16:56;;;;;;;60.00;22.43;;;5.70;99.90;;;;;;4768154;30;20594;-83
2022/11/15 06:19:23;;;;;;;60.80;21.60;;;5.70;99.90;;;;;;4768845;30;20215;-83
2022/11/15 06:21:50;;;;;;;61.93;21.67;;;5.60;99.90;;;;;;4768501;30;20261;-83
2022/11/15 06:24:17;;;;;;;54.93;19.80;;;5.50;99.90;;;;;;4768642;30;20594;-82
2022/11/15 06:26:43;;;;;;;57.03;20.70;;;5.50;99.90;;;;;;4753654;30;20208;-83
2022/11/15 06:29:10;;;;;;;61.10;21.60;;;5.60;99.90;;;;;;4768328;30;20220;-82
2022/11/15 06:31:37;;;;;;;58.17;20.63;;;5.50;99.90;;;;;;4768274;30;20218;-84
2022/11/15 06:34:05;;;;;;;64.53;22.63;;;5.50;99.90;;;;;;4770265;30;20673;-83
2022/11/15 06:36:34;;;;;;;60.43;21.37;;;5.60;99.90;;;;;;4756616;30;20651;-83
2022/11/15 06:39:03;;;;;;;57.20;21.00;;;5.70;99.90;;;;;;4771381;30;20204;-86
2022/11/15 06:41:33;;;;;;;63.73;22.27;;;5.60;99.90;;;;;;4771710;30;20294;-86
2022/11/15 06:44:00;;;;;;;61.80;21.87;;;5.60;99.90;;;;;;4773737;29;20203;-82
2022/11/15 06:46:27;;;;;;;61.37;21.47;;;5.70;99.90;;;;;;4771075;30;20339;-84
2022/11/15 06:48:54;;;;;;;57.80;21.83;;;5.70;99.90;;;;;;4771715;30;20211;-86
2022/11/15 06:51:21;;;;;;;68.63;22.47;;;5.80;99.90;;;;;;4756556;30;20673;-86
2022/11/15 06:53:48;;;;;;;61.57;22.87;;;5.70;99.90;;;;;;4771407;30;20253;-82
2022/11/15 06:56:15;;;;;;;63.67;22.53;;;5.60;99.90;;;;;;4772218;30;20239;-82
2022/11/15 06:58:42;;;;;;;66.27;22.07;;;5.60;99.90;;;;;;4772186;30;20222;-83
2022/11/15 07:01:11;;;;;;;60.27;20.87;;;5.70;99.90;;;;;;4771099;30;20257;-83
2022/11/15 07:03:41;;;;;;;56.47;21.53;;;5.60;99.90;;;;;;4756199;30;20262;-83
2022/11/15 07:06:09;;;;;;;51.27;19.13;;;5.60;99.90;;;;;;4772041;29;20556;-83
2022/11/15 07:08:36;;;;;;;46.70;17.70;;;5.50;99.90;;;;;;4772102;30;20200;-83
2022/11/15 07:11:06;;;;;;;47.97;18.63;;;5.60;99.90;;;;;;4770834;30;20217;-83
2022/11/15 07:13:34;;;;;;;47.63;18.37;;;5.30;99.90;;;;;;4770461;30;20201;-83
2022/11/15 07:16:06;;;;;;;50.47;18.87;;;5.30;99.90;;;;;;4772272;30;20300;-84
2022/11/15 07:18:38;;;;;;;45.67;18.10;;;5.40;99.90;;;;;;4786008;30;20229;-83
2022/11/15 07:21:08;;;;;;;51.70;19.57;;;5.50;99.90;;;;;;4772606;29;20224;-85
2022/11/15 07:23:39;;;;;;;55.03;19.50;;;5.40;99.90;;;;;;4771936;30;20250;-82
2022/11/15 07:26:07;;;;;;;53.03;19.83;;;5.40;99.90;;;;;;4771717;30;20654;-84
2022/11/15 07:28:35;;;;;;;52.67;19.83;;;5.40;99.90;;;;;;4770829;30;20226;-84
2022/11/15 07:31:07;;;;;;;50.03;20.37;;;5.30;99.90;;;;;;4770583;30;20575;-84
2022/11/15 07:33:35;;;;;;;51.77;19.40;;;5.40;99.90;;;;;;4770790;30;20657;-83
2022/11/15 07:36:05;;;;;;;48.43;18.77;;;5.40;99.90;;;;;;4772090;29;20204;-85
2022/11/15 07:38:33;;;;;;;52.37;19.83;;;5.30;99.90;;;;;;4770585;30;20781;-85
2022/11/15 07:41:08;;;;;;;53.00;18.80;;;5.30;99.90;;;;;;4757186;30;20211;-84
2022/11/15 07:43:35;;;;;;;54.97;20.37;;;5.20;99.90;;;;;;4769752;30;20675;-84
2022/11/15 07:46:08;;;;;;;56.10;20.23;;;5.20;99.90;;;;;;4771441;30;20196;-84
2022/11/15 07:48:39;;;;;;;53.57;19.83;;;5.30;99.90;;;;;;4771663;30;20197;-84
2022/11/15 07:51:15;;;;;;;46.93;18.27;;;5.40;99.90;;;;;;4770164;30;20293;-83
2022/11/15 07:53:43;;;;;;;44.50;18.20;;;5.30;99.90;;;;;;4770202;30;20243;-84
2022/11/15 07:56:13;;;;;;;41.20;17.57;;;5.40;99.90;;;;;;4770439;30;20259;-84
2022/11/15 07:58:40;;;;;;;43.60;18.80;;;5.30;99.90;;;;;;4769893;30;20235;-84
2022/11/15 08:01:09;;;;;;;41.37;16.10;;;5.40;99.90;;;;;;4770606;30;20231;-84
2022/11/15 08:03:37;;;;;;;37.33;16.87;;;5.40;99.90;;;;;;4771225;30;20213;-83
2022/11/15 08:06:04;;;;;;;41.43;16.67;;;5.50;99.90;;;;;;4769702;30;20242;-83
2022/11/15 08:08:31;;;;;;;40.00;16.53;;;5.50;99.90;;;;;;4771489;30;20197;-84
2022/11/15 08:10:59;;;;;;;36.90;16.20;;;5.40;99.90;;;;;;4769781;30;20717;-84
2022/11/15 08:13:26;;;;;;;36.87;16.30;;;5.60;99.90;;;;;;4769991;30;20616;-84
2022/11/15 08:15:59;;;;;;;36.00;15.80;;;5.60;99.90;;;;;;4769814;30;20216;-84
2022/11/15 08:18:26;;;;;;;35.57;15.77;;;5.70;99.90;;;;;;4770969;30;20224;-84
2022/11/15 08:20:53;;;;;;;41.57;17.10;;;5.70;99.90;;;;;;4769539;30;20203;-84
2022/11/15 08:23:20;;;;;;;41.00;16.30;;;5.80;99.90;;;;;;4769960;30;20207;-83
2022/11/15 08:25:47;;;;;;;42.17;17.27;;;5.70;99.90;;;;;;4770792;30;20197;-85
2022/11/15 08:28:17;;;;;;;42.87;17.33;;;5.70;99.90;;;;;;4770778;30;20195;-84
2022/11/15 08:30:45;;;;;;;45.37;18.47;;;5.70;99.90;;;;;;4769876;30;20210;-83
2022/11/15 08:33:14;;;;;;;42.40;17.20;;;5.70;99.90;;;;;;4770897;30;20672;-81
2022/11/15 08:35:43;;;;;;;43.03;17.83;;;5.70;99.90;;;;;;4769398;30;20230;-83
2022/11/15 08:38:10;;;;;;;41.93;16.30;;;5.80;99.90;;;;;;4769833;30;20273;-83
2022/11/15 08:40:37;;;;;;;40.30;16.57;;;5.70;99.90;;;;;;4769780;30;20705;-85
2022/11/15 08:43:05;;;;;;;37.93;15.67;;;5.70;99.90;;;;;;4769915;30;20212;-83
2022/11/15 08:45:34;;;;;;;43.30;17.53;;;5.60;99.90;;;;;;4769413;30;20204;-84
2022/11/15 08:48:03;;;;;;;40.93;16.17;;;5.60;99.90;;;;;;4769447;30;20233;-82
2022/11/15 08:50:30;;;;;;;36.20;16.00;;;5.80;99.90;;;;;;4769223;30;20241;-83
2022/11/15 08:52:57;;;;;;;42.30;16.50;;;5.80;99.90;;;;;;4771897;30;20239;-82
2022/11/15 08:55:24;;;;;;;40.03;16.53;;;5.80;99.90;;;;;;4771334;30;20627;-83
2022/11/15 08:57:51;;;;;;;39.07;16.47;;;5.70;99.90;;;;;;4771939;30;20259;-83
2022/11/15 09:00:19;;;;;;;36.93;16.50;;;5.70;99.90;;;;;;4772393;30;20230;-85
2022/11/15 09:02:47;;;;;;;37.80;15.77;;;5.70;99.90;;;;;;4788044;30;20632;-81
2022/11/15 09:05:15;;;;;;;44.20;17.20;;;5.70;99.90;;;;;;4788126;29;20293;-84
2022/11/15 09:07:42;;;;;;;39.63;17.53;;;5.70;99.90;;;;;;4771935;30;20262;-84
2022/11/15 09:10:09;;;;;;;38.03;16.93;;;5.70;99.90;;;;;;4772129;30;20208;-82
2022/11/15 09:12:36;;;;;;;41.07;16.67;;;5.70;99.90;;;;;;4771896;30;20256;-83
2022/11/15 09:15:05;;;;;;;52.80;19.60;;;5.80;99.90;;;;;;4771574;30;20205;-81
2022/11/15 09:17:32;;;;;;;39.33;17.00;;;5.80;99.90;;;;;;4771710;30;20231;-82
2022/11/15 09:19:59;;;;;;;44.50;18.30;;;5.90;99.90;;;;;;4771947;30;20214;-85
2022/11/15 09:22:26;;;;;;;36.90;17.53;;;6.00;99.90;;;;;;4771758;30;20637;-83
2022/11/15 09:24:53;;;;;;;37.90;16.63;;;6.10;99.90;;;;;;4771640;30;20274;-83
2022/11/15 09:27:20;;;;;;;41.67;17.57;;;6.10;99.90;;;;;;4772229;30;20620;-83
2022/11/15 09:29:50;;;;;;;38.90;16.70;;;6.10;99.90;;;;;;4771740;30;20310;-84
2022/11/15 09:32:17;;;;;;;37.60;17.00;;;6.20;99.90;;;;;;4787462;29;20223;-82
2022/11/15 09:34:44;;;;;;;35.63;16.67;;;6.40;99.90;;;;;;4771753;29;20207;-83
2022/11/15 09:37:12;;;;;;;42.30;17.57;;;6.40;99.90;;;;;;4787771;29;20202;-82
2022/11/15 09:39:39;;;;;;;46.40;18.40;;;6.30;99.90;;;;;;4772041;30;20208;-82
2022/11/15 09:43:01;;;;;;;41.07;17.70;;;6.30;99.90;;;;;;4787942;29;20202;-80
2022/11/15 09:46:08;;;;;;;39.60;17.23;;;6.30;99.90;;;;;;4758466;30;20238;-82
2022/11/15 09:49:07;;;;;;;41.17;17.83;;;6.10;99.90;;;;;;4774017;30;20252;-77
2022/11/15 09:52:19;;;;;;;41.47;17.27;;;5.90;99.90;;;;;;4788757;29;20231;-76
2022/11/15 09:55:23;;;;;;;42.27;18.57;;;5.90;99.90;;;;;;4751271;30;20209;-77
2022/11/15 09:58:41;;;;;;;42.63;18.57;;;6.00;99.90;;;;;;4738349;30;20229;-78
2022/11/15 10:02:02;;;;;;;39.70;17.90;;;6.00;99.90;;;;;;4750670;30;20218;-80
2022/11/15 10:05:01;;;;;;;40.43;18.30;;;6.00;99.90;;;;;;4717520;30;20211;-83
2022/11/15 10:08:17;;;;;;;44.40;19.07;;;6.00;99.90;;;;;;4650266;30;20215;-80
2022/11/15 10:10:58;;;;;;;40.70;18.13;;;5.90;99.90;;;;;;4645304;30;20690;-76
2022/11/15 10:18:57;;;;;;;42.67;18.93;;;6.10;99.90;;;;;;4697466;30;20235;-83
2022/11/15 10:21:48;;;;;;;40.57;17.97;;;6.10;99.90;;;;;;4652090;30;20225;-81
2022/11/15 10:24:39;;;;;;;41.67;18.90;;;6.20;99.90;;;;;;4651870;30;20228;-85
2022/11/15 10:27:20;;;;;;;42.27;19.10;;;6.20;99.90;;;;;;4665974;30;20283;-85
2022/11/15 10:30:03;;;;;;;43.80;18.67;;;6.20;99.90;;;;;;4666095;30;20237;-85
2022/11/15 10:32:46;;;;;;;40.33;19.00;;;6.20;99.90;;;;;;4651902;30;20212;-84
2022/11/15 10:35:30;;;;;;;44.63;19.90;;;6.20;99.90;;;;;;4665789;30;20254;-84
2022/11/15 10:38:12;;;;;;;42.17;19.50;;;6.20;99.90;;;;;;4651661;30;20236;-79
2022/11/15 10:41:07;;;;;;;41.50;18.93;;;6.40;99.90;;;;;;4665874;30;20674;-79
2022/11/15 10:43:34;;;;;;;44.40;18.80;;;6.30;99.90;;;;;;4690361;30;20210;-85
2022/11/15 10:46:19;;;;;;;43.10;19.63;;;6.30;99.90;;;;;;4685705;30;20723;-82
2022/11/15 10:49:18;;;;;;;43.13;18.97;;;6.40;99.90;;;;;;4700168;30;20705;-83
2022/11/15 10:51:59;;;;;;;42.53;19.67;;;6.40;99.90;;;;;;4685539;30;20215;-85
2022/11/15 10:54:42;;;;;;;45.53;19.27;;;6.50;99.90;;;;;;4733078;30;20267;-88
2022/11/15 10:57:14;;;;;;;40.57;19.37;;;6.40;99.90;;;;;;4772820;30;20234;-87
2022/11/15 10:59:48;;;;;;;44.80;19.47;;;6.50;99.90;;;;;;4771909;30;20244;-81
2022/11/15 11:02:34;;;;;;;40.97;19.67;;;6.50;99.90;;;;;;4771157;30;20215;-83
2022/11/15 11:05:02;;;;;;;50.47;19.70;;;6.50;99.90;;;;;;4770988;30;20207;-85
2022/11/15 11:07:34;;;;;;;40.67;18.63;;;6.60;99.90;;;;;;4771655;30;20227;-86
2022/11/15 11:10:19;;;;;;;39.23;18.53;;;6.70;99.90;;;;;;4756539;30;20342;-89
2022/11/15 11:13:25;;;;;;;47.13;20.00;;;6.50;99.90;;;;;;4772108;30;20678;-86
2022/11/15 11:16:14;;;;;;;43.60;19.50;;;6.50;99.90;;;;;;4771780;30;20267;-86
2022/11/15 11:19:09;;;;;;;41.57;19.17;;;6.60;99.90;;;;;;4769989;30;20698;-85
2022/11/15 11:22:09;;;;;;;36.83;17.57;;;6.70;99.90;;;;;;4772416;30;20216;-89
2022/11/15 11:25:02;;;;;;;39.90;18.57;;;6.50;99.90;;;;;;4757028;30;20210;-87
2022/11/15 11:27:58;;;;;;;39.83;18.23;;;6.50;99.90;;;;;;4772066;30;20271;-84
2022/11/15 11:30:51;;;;;;;41.20;19.07;;;6.60;99.90;;;;;;4772764;30;20299;-86
2022/11/15 11:33:31;;;;;;;44.70;19.60;;;6.60;99.90;;;;;;4770685;30;20216;-84
2022/11/15 11:36:15;;;;;;;44.93;20.73;;;6.60;99.90;;;;;;4770844;30;20211;-88
2022/11/15 11:38:48;;;;;;;43.13;19.80;;;6.80;99.90;;;;;;4771386;30;20285;-90
2022/11/15 11:41:24;;;;;;;46.93;20.40;;;6.80;99.90;;;;;;4770871;30;20614;-90
2022/11/15 11:44:15;;;;;;;49.43;20.63;;;6.80;99.90;;;;;;4771856;30;20197;-88
2022/11/15 11:46:48;;;;;;;49.60;21.43;;;6.80;99.90;;;;;;4770288;30;20200;-84
2022/11/15 11:49:29;;;;;;;48.00;21.37;;;6.90;99.90;;;;;;4770522;30;20559;-87
2022/11/15 11:52:28;;;;;;;41.23;19.60;;;7.00;99.90;;;;;;4771571;30;20222;-87
2022/11/15 11:55:16;;;;;;;45.20;20.83;;;7.00;99.90;;;;;;4788403;29;20232;-83
2022/11/15 11:58:05;;;;;;;51.17;21.27;;;7.00;99.90;;;;;;4758201;30;20215;-83
2022/11/15 12:00:38;;;;;;;46.67;21.00;;;7.00;99.90;;;;;;4773351;30;20196;-83
2022/11/15 12:03:13;;;;;;;47.33;21.23;;;7.20;99.90;;;;;;4772972;30;20204;-83
2022/11/15 12:05:46;;;;;;;43.80;21.27;;;7.00;99.90;;;;;;4772435;30;20690;-81
2022/11/15 12:08:28;;;;;;;49.70;22.37;;;7.10;99.90;;;;;;4772741;30;20242;-81
2022/11/15 12:11:25;;;;;;;50.23;21.70;;;7.20;99.90;;;;;;4789528;29;20654;-86
2022/11/15 12:13:59;;;;;;;48.37;21.40;;;7.20;99.90;;;;;;4736742;30;20664;-84
2022/11/15 12:16:28;;;;;;;47.87;21.83;;;7.20;99.90;;;;;;4751116;30;20228;-81
2022/11/15 12:18:59;;;;;;;48.20;21.37;;;6.90;99.90;;;;;;4751229;30;20786;-82
2022/11/15 12:21:35;;;;;;;49.80;22.93;;;7.00;99.90;;;;;;4751177;30;20202;-84
2022/11/15 12:24:13;;;;;;;47.93;22.37;;;7.00;99.90;;;;;;4750998;30;20213;-86
2022/11/15 12:27:06;;;;;;;51.77;22.17;;;7.00;99.90;;;;;;4736097;30;20228;-86
2022/11/15 12:29:38;;;;;;;46.57;21.70;;;7.10;99.90;;;;;;4736097;30;20688;-85
2022/11/15 12:32:22;;;;;;;48.37;23.53;;;7.30;99.90;;;;;;4736589;30;20206;-79
2022/11/15 12:34:50;;;;;;;46.20;22.17;;;7.20;99.90;;;;;;4735929;30;20213;-82
2022/11/15 12:37:37;;;;;;;44.27;21.63;;;7.20;99.90;;;;;;4750481;30;20213;-82
2022/11/15 12:40:18;;;;;;;51.07;22.60;;;7.30;99.90;;;;;;4751398;30;20239;-89
2022/11/15 12:43:30;;;;;;;46.97;22.17;;;7.30;99.90;;;;;;4751763;30;20202;-90
2022/11/15 12:46:04;;;;;;;45.00;21.17;;;7.40;99.90;;;;;;4750420;30;20212;-90
2022/11/15 12:48:37;;;;;;;47.07;22.33;;;7.40;99.90;;;;;;4750873;30;20217;-81
2022/11/15 12:51:04;;;;;;;47.57;21.93;;;7.20;99.90;;;;;;4754296;30;20218;-81
2022/11/15 12:53:33;;;;;;;49.00;21.93;;;7.40;99.90;;;;;;4772107;30;20240;-90
2022/11/15 12:56:03;;;;;;;48.57;21.50;;;7.20;99.90;;;;;;4757109;30;20234;-88
2022/11/15 12:59:05;;;;;;;46.70;21.80;;;7.10;99.90;;;;;;4772168;30;20227;-90
2022/11/15 13:01:37;;;;;;;50.20;22.60;;;7.30;99.90;;;;;;4771915;30;20202;-90
2022/11/15 13:04:08;;;;;;;50.60;22.77;;;7.30;99.90;;;;;;4771908;30;20322;-82
2022/11/15 13:06:46;;;;;;;46.43;22.73;;;7.30;99.90;;;;;;4771508;29;20223;-80
2022/11/15 13:09:34;;;;;;;49.40;22.70;;;7.30;99.90;;;;;;4757619;30;20650;-81
2022/11/15 13:12:27;;;;;;;46.83;22.57;;;7.50;99.90;;;;;;4787739;29;20228;-83
2022/11/15 13:15:21;;;;;;;43.80;22.20;;;7.60;99.90;;;;;;4771018;30;20294;-80
2022/11/15 13:17:53;;;;;;;48.30;22.87;;;7.60;99.90;;;;;;4732137;30;20616;-78
2022/11/15 13:20:26;;;;;;;47.10;22.70;;;7.60;99.90;;;;;;4732185;30;20352;-85
2022/11/15 13:23:09;;;;;;;46.90;22.33;;;7.70;99.90;;;;;;4717528;30;20220;-82
2022/11/15 13:25:37;;;;;;;47.00;21.77;;;7.70;99.90;;;;;;4717399;30;20653;-79
2022/11/15 13:28:17;;;;;;;52.37;23.47;;;7.70;99.90;;;;;;4732262;30;20206;-82
2022/11/15 13:30:47;;;;;;;47.27;23.70;;;7.60;99.90;;;;;;4732150;30;20209;-85
2022/11/15 13:33:20;;;;;;;46.97;22.13;;;7.70;99.90;;;;;;4732117;30;20726;-84